Xin Dan Dong — BPBY — position and weather

sailwx.info

Track history (hours):
 
Tides and Currents Weather Stations Pressure Air Temp Water Temp Dewpoint Dewpoint Depression Visibility Wind Speed Wind Dir Waves Ship Positions

Xin Dan Dong

Last reported at 2014-Jul-29 06:23 UTC. Time now 2014-Jul-30 02:54 UTC.
Position N 01°17' E 104°18'.

Length 263 m; draft 7.5 m.

Type: Ship (hazmat cat A). MMSI: 413153000.

Date/timePositionNaut miles runAvg speedWind from/ knotsBaromVisibWave heightAir tempDewpointWater temp
2014-Jul-29 06:23N 01°17' E 104°18'1112.6
2014-Jul-29 05:31N 01°15' E 104°07'1213.1
2014-Jul-29 04:34N 01°13' E 103°55'20 0.4
2014-Jul-27 04:21N 01°11' E 103°35'1316.4
2014-Jul-27 03:34N 01°10' E 103°48'1919.1
2014-Jul-27 02:33N 01°16' E 104°06'1817.4
2014-Jul-27 01:33N 01°21' E 104°23'  
2014-Jul-22 16:31N 19°18' E 115°27'23212.9
2014-Jul-21 22:32N 22°45' E 117°19'2912.0
2014-Jul-21 20:08N 23°10' E 117°34'1012.6
2014-Jul-21 19:22N 23°17' E 117°42'1313.0
2014-Jul-21 18:22N 23°26' E 117°52'1112.9
2014-Jul-21 17:33N 23°33' E 118°01'1312.9
2014-Jul-21 16:34N 23°41' E 118°11'1413.2
2014-Jul-21 15:32N 23°51' E 118°22'1313.7
2014-Jul-21 14:33N 24°00' E 118°32'1413.8
2014-Jul-21 13:33N 24°09' E 118°43'1413.7
2014-Jul-21 12:33N 24°19' E 118°54'1413.9
2014-Jul-21 11:32N 24°28' E 119°06'1313.5
2014-Jul-21 10:33N 24°37' E 119°17'30612.7
2014-Jul-20 10:30N 28°42' E 122°43'1212.8
2014-Jul-20 09:33N 28°54' E 122°47'1412.5
2014-Jul-20 08:24N 29°07' E 122°51'1112.4
2014-Jul-20 07:33N 29°18' E 122°54'1212.5
2014-Jul-20 06:33N 29°30' E 122°58'1312.5
2014-Jul-20 05:29N 29°42' E 123°03'1212.9
2014-Jul-20 04:33N 29°54' E 123°08'1312.9
2014-Jul-20 03:33N 30°06' E 123°11'1313.3
2014-Jul-20 02:33N 30°19' E 123°14'2713.3
2014-Jul-20 00:32N 30°46' E 123°14'  
Track history (hours):
 
Tides and Currents Weather Stations Pressure Air Temp Water Temp Dewpoint Dewpoint Depression Visibility Wind Speed Wind Dir Waves Ship Positions

Xin Dan Dong

Last reported at 2014-Jul-29 06:23 UTC. Time now 2014-Jul-30 02:54 UTC.
Position N 01°17' E 104°18'.

Length 263 m; draft 7.5 m.

Type: Ship (hazmat cat A). MMSI: 413153000.

Date/timePositionNaut miles runAvg speedWind from/ knotsBaromVisibWave heightAir tempDewpointWater temp
2014-Jul-29 06:23N 01°17' E 104°18'1112.6
2014-Jul-29 05:31N 01°15' E 104°07'1213.1
2014-Jul-29 04:34N 01°13' E 103°55'20 0.4
2014-Jul-27 04:21N 01°11' E 103°35'1316.4
2014-Jul-27 03:34N 01°10' E 103°48'1919.1
2014-Jul-27 02:33N 01°16' E 104°06'1817.4
2014-Jul-27 01:33N 01°21' E 104°23'  
2014-Jul-22 16:31N 19°18' E 115°27'23212.9
2014-Jul-21 22:32N 22°45' E 117°19'2912.0
2014-Jul-21 20:08N 23°10' E 117°34'1012.6
2014-Jul-21 19:22N 23°17' E 117°42'1313.0
2014-Jul-21 18:22N 23°26' E 117°52'1112.9
2014-Jul-21 17:33N 23°33' E 118°01'1312.9
2014-Jul-21 16:34N 23°41' E 118°11'1413.2
2014-Jul-21 15:32N 23°51' E 118°22'1313.7
2014-Jul-21 14:33N 24°00' E 118°32'1413.8
2014-Jul-21 13:33N 24°09' E 118°43'1413.7
2014-Jul-21 12:33N 24°19' E 118°54'1413.9
2014-Jul-21 11:32N 24°28' E 119°06'1313.5
2014-Jul-21 10:33N 24°37' E 119°17'30612.7
2014-Jul-20 10:30N 28°42' E 122°43'1212.8
2014-Jul-20 09:33N 28°54' E 122°47'1412.5
2014-Jul-20 08:24N 29°07' E 122°51'1112.4
2014-Jul-20 07:33N 29°18' E 122°54'1212.5
2014-Jul-20 06:33N 29°30' E 122°58'1312.5
2014-Jul-20 05:29N 29°42' E 123°03'1212.9
2014-Jul-20 04:33N 29°54' E 123°08'1312.9
2014-Jul-20 03:33N 30°06' E 123°11'1313.3
2014-Jul-20 02:33N 30°19' E 123°14'2713.3
2014-Jul-20 00:32N 30°46' E 123°14'  

Dump ship's entire track history